LCLK/LCA METAR and TAF weather

Enter ICAO airport designator
Station Type Date Time Source
LCLK METAR 2022/06/27 18:00 UTC NOAA

LCLK 271800Z 21005KT 9999 FEW040 26/22 Q1007 NOSIG


Station Type Date Time Source
LCLK Decoded METAR 2022/06/27 18:00 UTC NOAA

Larnaca Airport, Cyprus (LCLK) 34-53N 033-38E 2M
Jun 27, 2022 - 02:00 PM EDT / 2022.06.27 1800 UTC
Wind: from the SSW (210 degrees) at 6 MPH (5 KT):0
Visibility: greater than 7 mile(s):0
Sky conditions: mostly clear
Temperature: 78 F (26 C)
Dew Point: 71 F (22 C)
Relative Humidity: 78%
Pressure (altimeter): 29.74 in. Hg (1007 hPa)
ob: LCLK 271800Z 21005KT 9999 FEW040 26/22 Q1007 NOSIG
cycle: 18

Station Type Date Time Source
LCLK TAF 2022/06/27 18:33 UTC NOAA

TAF TAF LCLK 271730Z 2718/2818 20010KT 9999 FEW035
BECMG 2718/2720 30007KT
BECMG 2807/2811 18014KT

Example: see airport list